createdAt,value
2022-08-11T00:02:00.563Z,83.60
2022-08-11T00:04:35.919Z,83.10
2022-08-11T00:07:04.869Z,83.10
2022-08-11T00:09:39.417Z,84.00
2022-08-11T00:12:17.469Z,84.10
2022-08-11T00:14:46.559Z,83.90
2022-08-11T00:17:15.900Z,84.40
2022-08-11T00:20:14.326Z,84.80
2022-08-11T00:22:41.867Z,85.10
2022-08-11T00:25:17.819Z,85.50
2022-08-11T00:27:47.157Z,86.30
2022-08-11T00:30:15.701Z,85.40
2022-08-11T00:32:56.454Z,85.80
2022-08-11T00:35:52.087Z,85.40
2022-08-11T00:38:19.090Z,86.20
2022-08-11T00:41:18.460Z,86.30
2022-08-11T00:44:36.648Z,86.10
2022-08-11T00:47:31.694Z,84.80
2022-08-11T00:50:39.640Z,85.80
2022-08-11T00:53:31.415Z,86.20
2022-08-11T00:56:39.847Z,86.30
2022-08-11T00:59:35.605Z,85.40
2022-08-11T01:02:20.111Z,86.20
2022-08-11T01:05:25.336Z,85.50
2022-08-11T01:08:24.703Z,87.10
2022-08-11T01:11:12.865Z,87.20
2022-08-11T01:13:58.061Z,87.60
2022-08-11T01:17:25.122Z,85.90
2022-08-11T01:20:47.373Z,84.50
2022-08-11T01:23:53.322Z,84.10
2022-08-11T01:26:44.364Z,84.10
2022-08-11T01:29:39.533Z,83.90
2022-08-11T01:32:47.134Z,82.30
2022-08-11T01:36:00.685Z,83.60
2022-08-11T01:38:51.409Z,83.60
2022-08-11T01:42:01.624Z,84.20
2022-08-11T01:44:47.335Z,85.20
2022-08-11T01:47:52.891Z,85.00
2022-08-11T01:51:17.529Z,85.00
2022-08-11T01:54:15.672Z,84.80
2022-08-11T01:56:57.172Z,85.40
2022-08-11T01:59:33.506Z,85.70
2022-08-11T02:02:46.171Z,86.10
2022-08-11T02:06:01.316Z,86.70
2022-08-11T02:09:04.108Z,87.90
2022-08-11T02:11:37.550Z,87.70
2022-08-11T02:14:27.078Z,88.30
2022-08-11T02:17:16.095Z,88.20
2022-08-11T02:20:17.992Z,88.70
2022-08-11T02:24:06.491Z,89.60
2022-08-11T02:26:47.289Z,89.00
2022-08-11T02:29:46.011Z,90.00
2022-08-11T02:32:39.268Z,89.70
2022-08-11T02:35:59.212Z,89.20
2022-08-11T02:38:52.383Z,90.30
2022-08-11T02:42:35.180Z,90.20
2022-08-11T02:45:46.378Z,89.90
2022-08-11T02:48:49.535Z,90.30
2022-08-11T02:52:07.233Z,90.80
2022-08-11T02:55:06.064Z,90.60
2022-08-11T02:57:44.195Z,90.80
2022-08-11T03:00:15.585Z,90.70
2022-08-11T03:03:26.126Z,91.60
2022-08-11T03:06:38.506Z,91.40
2022-08-11T03:09:25.269Z,91.60
2022-08-11T03:12:29.617Z,91.40
2022-08-11T03:15:58.050Z,91.40
2022-08-11T03:18:37.652Z,91.80
2022-08-11T03:21:21.667Z,91.60
2022-08-11T03:24:11.617Z,91.90
2022-08-11T03:27:02.531Z,91.90
2022-08-11T03:29:43.930Z,92.30
2022-08-11T03:33:06.584Z,92.30
2022-08-11T03:35:45.660Z,92.30
2022-08-11T03:38:17.793Z,92.20
2022-08-11T03:42:01.855Z,92.20
2022-08-11T03:44:25.836Z,92.10
2022-08-11T03:47:24.432Z,92.00
2022-08-11T03:49:57.054Z,92.30
2022-08-11T03:53:07.559Z,92.30
2022-08-11T03:56:24.086Z,92.70
2022-08-11T03:59:28.835Z,92.50
2022-08-11T04:02:14.219Z,92.70
2022-08-11T04:05:52.512Z,92.80
2022-08-11T04:09:06.166Z,93.20
2022-08-11T04:12:35.768Z,93.20
2022-08-11T04:16:12.825Z,93.70
2022-08-11T04:19:46.291Z,93.20
2022-08-11T04:22:50.216Z,93.60
2022-08-11T04:25:57.656Z,93.50
2022-08-11T04:29:02.180Z,93.50
2022-08-11T04:32:25.811Z,93.50
2022-08-11T04:35:31.938Z,93.50
2022-08-11T04:38:43.390Z,93.80
2022-08-11T04:41:19.180Z,93.80
2022-08-11T04:44:29.464Z,93.90
2022-08-11T04:48:01.450Z,94.30
2022-08-11T04:51:37.755Z,94.60
2022-08-11T04:55:12.662Z,95.30
2022-08-11T04:58:35.992Z,95.30
2022-08-11T05:01:44.156Z,94.60
2022-08-11T05:04:47.961Z,94.50
2022-08-11T05:08:03.615Z,95.40
2022-08-11T05:10:45.932Z,95.80
2022-08-11T05:13:48.518Z,96.40
2022-08-11T05:16:49.514Z,96.40
2022-08-11T05:19:38.385Z,96.20
2022-08-11T05:22:30.368Z,95.80
2022-08-11T05:26:47.612Z,95.40
2022-08-11T05:28:55.960Z,95.30
2022-08-11T05:31:55.309Z,94.30
2022-08-11T05:34:54.242Z,95.30
2022-08-11T05:37:30.368Z,95.30
2022-08-11T05:40:31.417Z,95.20
2022-08-11T05:43:31.867Z,95.00
2022-08-11T05:46:24.186Z,94.20
2022-08-11T05:49:11.580Z,94.70
2022-08-11T05:52:05.442Z,94.60
2022-08-11T05:55:05.969Z,92.80
2022-08-11T05:57:50.440Z,93.00
2022-08-11T06:00:20.121Z,93.00
2022-08-11T06:03:00.927Z,93.20
2022-08-11T06:05:43.322Z,92.90
2022-08-11T06:08:13.501Z,92.30
2022-08-11T06:10:43.826Z,92.40
2022-08-11T06:13:16.699Z,91.60
2022-08-11T06:15:55.983Z,90.80
2022-08-11T06:18:23.804Z,90.60
2022-08-11T06:20:55.528Z,90.90
2022-08-11T06:23:30.801Z,90.60
2022-08-11T06:25:59.398Z,90.00
2022-08-11T06:28:33.716Z,90.00
2022-08-11T06:31:03.051Z,86.00
2022-08-11T06:33:56.583Z,88.40
2022-08-11T06:36:45.401Z,86.70
2022-08-11T06:39:40.777Z,85.90
2022-08-11T06:42:34.195Z,85.20
2022-08-11T06:45:35.408Z,83.40
2022-08-11T06:48:03.206Z,82.30
2022-08-11T06:50:50.421Z,84.10
2022-08-11T06:53:20.404Z,83.00
2022-08-11T06:56:08.730Z,82.20
2022-08-11T06:58:59.383Z,81.50
2022-08-11T07:01:59.179Z,82.10
2022-08-11T07:04:43.320Z,81.20
2022-08-11T07:07:59.252Z,80.40
2022-08-11T07:11:39.904Z,81.20
2022-08-11T07:14:27.025Z,79.80
2022-08-11T07:16:56.320Z,81.00
2022-08-11T07:19:47.982Z,80.10
2022-08-11T07:22:34.232Z,80.50
2022-08-11T07:25:36.390Z,82.30
2022-08-11T07:28:30.099Z,82.00
2022-08-11T07:31:08.102Z,82.10
2022-08-11T07:34:08.454Z,80.10
2022-08-11T07:36:46.843Z,80.90
2022-08-11T07:39:29.510Z,79.60
2022-08-11T07:41:59.898Z,80.30
2022-08-11T07:44:35.030Z,79.10
2022-08-11T07:47:22.237Z,77.30
2022-08-11T07:50:12.425Z,78.50
2022-08-11T07:52:40.845Z,77.00
2022-08-11T07:55:17.867Z,74.70
2022-08-11T07:58:16.456Z,75.90
2022-08-11T08:01:21.294Z,75.50
2022-08-11T08:04:11.132Z,75.10
2022-08-11T08:06:58.292Z,74.90
2022-08-11T08:09:44.577Z,73.10
2022-08-11T08:12:32.197Z,74.00
2022-08-11T08:15:20.042Z,74.30
2022-08-11T08:18:20.426Z,73.30
2022-08-11T08:20:52.462Z,72.90
2022-08-11T08:23:36.003Z,72.60
2022-08-11T08:26:26.714Z,71.30
2022-08-11T08:29:16.268Z,72.00
2022-08-11T08:31:45.068Z,71.40
2022-08-11T08:34:14.350Z,70.80
2022-08-11T08:36:45.129Z,71.80
2022-08-11T08:39:14.507Z,70.90
2022-08-11T08:41:43.963Z,69.40
2022-08-11T08:47:06.451Z,71.00
2022-08-11T08:49:42.123Z,69.50
2022-08-11T08:52:25.371Z,69.70
2022-08-11T08:55:05.804Z,67.80
2022-08-11T08:57:39.395Z,67.30
2022-08-11T09:00:12.940Z,66.70
2022-08-11T09:02:43.955Z,66.50
2022-08-11T09:05:12.242Z,66.70
2022-08-11T09:07:40.932Z,67.20
2022-08-11T09:10:12.173Z,66.60
2022-08-11T09:12:42.902Z,66.70
2022-08-11T09:15:12.825Z,64.50
2022-08-11T09:17:52.264Z,65.90
2022-08-11T09:20:29.514Z,66.30
2022-08-11T09:26:30.374Z,64.00
2022-08-11T09:29:00.767Z,63.10
2022-08-11T09:31:38.959Z,62.80
2022-08-11T09:34:09.654Z,62.40
2022-08-11T09:37:00.137Z,61.60
2022-08-11T09:39:49.125Z,63.30
2022-08-11T09:42:23.530Z,59.70
2022-08-11T09:44:53.917Z,60.20
2022-08-11T09:47:31.804Z,60.40
2022-08-11T09:50:01.956Z,60.80
2022-08-11T09:53:10.026Z,58.80
2022-08-11T09:55:33.835Z,58.80
2022-08-11T09:58:41.468Z,57.50
2022-08-11T10:01:08.058Z,57.80
2022-08-11T10:03:40.580Z,57.40
2022-08-11T10:06:33.343Z,57.60
2022-08-11T10:09:05.390Z,56.00
2022-08-11T10:11:35.194Z,57.00
2022-08-11T10:14:33.837Z,56.80
2022-08-11T10:17:08.875Z,56.20
2022-08-11T10:19:38.104Z,56.40
2022-08-11T10:22:27.868Z,56.10
2022-08-11T10:25:20.030Z,56.50
2022-08-11T10:28:30.648Z,56.20
2022-08-11T10:31:00.600Z,56.50
2022-08-11T10:33:57.605Z,57.50
2022-08-11T10:36:43.160Z,56.30
2022-08-11T10:39:17.985Z,56.00
2022-08-11T10:42:12.256Z,56.90
2022-08-11T10:44:48.538Z,56.90
2022-08-11T10:47:35.041Z,55.50
2022-08-11T10:50:29.718Z,56.40
2022-08-11T10:53:18.385Z,55.90
2022-08-11T10:58:51.365Z,54.70
2022-08-11T11:01:24.404Z,54.20
2022-08-11T11:03:58.882Z,55.60
2022-08-11T11:06:52.847Z,55.70
2022-08-11T11:09:32.527Z,55.10
2022-08-11T11:12:26.199Z,54.40
2022-08-11T11:15:17.837Z,53.60
2022-08-11T11:18:12.267Z,52.80
2022-08-11T11:20:47.314Z,51.90
2022-08-11T11:23:38.011Z,52.70
2022-08-11T11:26:57.532Z,51.70
2022-08-11T11:30:05.150Z,51.30
2022-08-11T11:32:55.896Z,53.10
2022-08-11T11:35:37.751Z,52.30
2022-08-11T11:38:13.848Z,49.50
2022-08-11T11:40:42.780Z,48.70
2022-08-11T11:43:10.585Z,46.00
2022-08-11T11:45:37.981Z,45.00
2022-08-11T11:48:06.365Z,43.10
2022-08-11T11:50:38.277Z,44.10
2022-08-11T11:53:08.358Z,43.10
2022-08-11T11:55:36.862Z,44.90
2022-08-11T11:58:25.472Z,44.90
2022-08-11T12:01:11.847Z,45.10
2022-08-11T12:03:40.541Z,44.50
2022-08-11T12:06:09.867Z,44.30
2022-08-11T12:08:38.209Z,44.40
2022-08-11T12:11:28.428Z,44.10
2022-08-11T12:14:00.248Z,44.10
2022-08-11T12:16:33.871Z,43.00
2022-08-11T12:19:11.114Z,41.10
2022-08-11T12:22:00.676Z,42.30
2022-08-11T12:24:51.240Z,43.20
2022-08-11T12:27:24.855Z,42.50
2022-08-11T12:30:06.238Z,41.50
2022-08-11T12:32:37.162Z,40.70
2022-08-11T12:35:07.641Z,40.60
2022-08-11T12:37:45.924Z,40.80
2022-08-11T12:41:12.061Z,41.40
2022-08-11T12:43:56.320Z,40.10
2022-08-11T12:46:32.000Z,40.10
2022-08-11T12:49:31.301Z,40.70
2022-08-11T12:52:12.713Z,40.60
2022-08-11T12:55:13.790Z,39.30
2022-08-11T12:58:05.944Z,39.80
2022-08-11T13:00:52.343Z,39.80
2022-08-11T13:03:40.802Z,40.70
2022-08-11T13:06:08.912Z,40.50
2022-08-11T13:08:39.791Z,39.00
2022-08-11T13:11:56.020Z,39.00
2022-08-11T13:14:16.316Z,38.00
2022-08-11T13:17:14.535Z,41.50
2022-08-11T13:19:48.885Z,39.00
2022-08-11T13:22:19.615Z,41.00
2022-08-11T13:24:48.993Z,42.70
2022-08-11T13:27:18.924Z,42.20
2022-08-11T13:29:47.600Z,41.10
2022-08-11T13:32:16.531Z,41.00
2022-08-11T13:34:47.619Z,40.40
2022-08-11T13:37:16.184Z,41.30
2022-08-11T13:39:48.472Z,42.00
2022-08-11T13:42:20.297Z,41.00
2022-08-11T13:44:48.155Z,41.30
2022-08-11T13:47:16.900Z,41.70
2022-08-11T13:49:45.844Z,40.30
2022-08-11T13:52:16.950Z,40.60
2022-08-11T13:54:48.308Z,39.70
2022-08-11T13:58:18.290Z,39.80
2022-08-11T14:00:23.492Z,40.90
2022-08-11T14:02:57.252Z,39.90
2022-08-11T14:05:47.562Z,40.60
2022-08-11T14:08:32.453Z,41.00
2022-08-11T14:12:22.562Z,41.60
2022-08-11T14:14:22.573Z,40.20
2022-08-11T14:16:52.542Z,40.10
2022-08-11T14:19:24.643Z,39.80
2022-08-11T14:22:08.598Z,39.60
2022-08-11T14:24:40.558Z,39.70
2022-08-11T14:28:30.271Z,40.40
2022-08-11T14:30:00.950Z,39.50
2022-08-11T14:32:28.241Z,39.60
2022-08-11T14:34:55.960Z,41.30
2022-08-11T14:37:25.800Z,41.60
2022-08-11T14:40:21.538Z,42.40
2022-08-11T14:43:07.322Z,39.80
2022-08-11T14:45:58.338Z,40.90
2022-08-11T14:48:27.411Z,40.60
2022-08-11T14:50:54.879Z,41.10
2022-08-11T14:53:24.228Z,42.00
2022-08-11T14:56:10.800Z,40.00
2022-08-11T14:58:40.117Z,41.10
2022-08-11T15:01:27.542Z,40.70
2022-08-11T15:04:01.206Z,41.60
2022-08-11T15:06:46.572Z,41.50
2022-08-11T15:09:13.951Z,42.70
2022-08-11T15:12:00.707Z,42.30
2022-08-11T15:14:46.569Z,42.00
2022-08-11T15:17:15.240Z,40.90
2022-08-11T15:20:05.263Z,41.00
2022-08-11T15:22:51.235Z,41.90
2022-08-11T15:25:20.156Z,41.40
2022-08-11T15:28:09.455Z,41.60
2022-08-11T15:30:57.029Z,42.30
2022-08-11T15:33:46.484Z,41.40
2022-08-11T15:36:33.931Z,42.80
2022-08-11T15:39:20.811Z,41.80
2022-08-11T15:45:29.288Z,43.60
2022-08-11T15:48:08.088Z,42.30
2022-08-11T15:50:45.437Z,42.80
2022-08-11T15:53:35.401Z,44.00
2022-08-11T15:56:04.183Z,44.10
2022-08-11T15:59:10.748Z,43.50
2022-08-11T16:02:06.249Z,42.40
2022-08-11T16:04:36.991Z,41.70
2022-08-11T16:07:15.542Z,42.20
2022-08-11T16:10:00.504Z,43.10
2022-08-11T16:12:36.660Z,42.80
2022-08-11T16:15:27.980Z,41.90
2022-08-11T16:18:05.807Z,42.60
2022-08-11T16:20:35.339Z,42.90
2022-08-11T16:23:10.324Z,43.60
2022-08-11T16:27:03.823Z,44.00
2022-08-11T16:28:27.412Z,43.30
2022-08-11T16:30:55.731Z,43.40
2022-08-11T16:33:49.881Z,43.50
2022-08-11T16:36:33.315Z,43.60
2022-08-11T16:39:02.094Z,43.60
2022-08-11T16:41:51.027Z,44.40
2022-08-11T16:44:39.200Z,44.90
2022-08-11T16:47:13.477Z,44.70
2022-08-11T16:49:52.861Z,44.80
2022-08-11T16:52:22.579Z,44.10
2022-08-11T16:54:50.442Z,44.50
2022-08-11T16:57:44.515Z,43.90
2022-08-11T17:00:17.121Z,44.50
2022-08-11T17:03:12.376Z,45.00
2022-08-11T17:06:11.749Z,45.60
2022-08-11T17:09:10.898Z,44.80
2022-08-11T17:12:04.992Z,45.00
2022-08-11T17:15:03.868Z,45.20
2022-08-11T17:17:37.868Z,45.60
2022-08-11T17:20:39.493Z,45.20
2022-08-11T17:23:19.921Z,44.30
2022-08-11T17:26:03.944Z,43.90
2022-08-11T17:28:33.350Z,43.70
2022-08-11T17:31:23.156Z,42.90
2022-08-11T17:34:11.216Z,42.70
2022-08-11T17:36:44.560Z,44.00
2022-08-11T17:39:13.715Z,44.10
2022-08-11T17:42:00.525Z,43.70
2022-08-11T17:44:47.319Z,45.50
2022-08-11T17:47:39.952Z,45.20
2022-08-11T17:50:17.643Z,44.90
2022-08-11T17:53:05.887Z,46.00
2022-08-11T17:55:57.863Z,47.80
2022-08-11T17:58:44.915Z,47.70
2022-08-11T18:01:13.487Z,48.50
2022-08-11T18:03:57.856Z,49.30
2022-08-11T18:06:33.942Z,50.00
2022-08-11T18:09:29.320Z,50.40
2022-08-11T18:12:16.289Z,52.70
2022-08-11T18:15:08.623Z,52.40
2022-08-11T18:17:56.540Z,53.30
2022-08-11T18:20:43.164Z,56.20
2022-08-11T18:23:45.741Z,55.40
2022-08-11T18:26:38.645Z,55.20
2022-08-11T18:29:26.593Z,56.50
2022-08-11T18:32:22.051Z,56.60
2022-08-11T18:35:11.290Z,56.50
2022-08-11T18:38:04.680Z,58.60
2022-08-11T18:40:51.427Z,59.30
2022-08-11T18:43:41.988Z,59.50
2022-08-11T18:46:30.586Z,59.50
2022-08-11T18:49:27.283Z,62.00
2022-08-11T18:52:34.283Z,61.50
2022-08-11T18:55:22.204Z,61.90
2022-08-11T18:58:10.539Z,61.00
2022-08-11T19:00:58.300Z,63.10
2022-08-11T19:03:48.723Z,62.90
2022-08-11T19:06:40.802Z,63.20
2022-08-11T19:09:33.788Z,64.80
2022-08-11T19:12:22.705Z,65.70
2022-08-11T19:15:11.408Z,66.30
2022-08-11T19:18:02.842Z,65.30
2022-08-11T19:20:51.816Z,66.70
2022-08-11T19:23:52.695Z,67.20
2022-08-11T19:26:42.398Z,67.70
2022-08-11T19:30:08.105Z,67.80
2022-08-11T19:32:38.063Z,67.90
2022-08-11T19:35:25.859Z,68.20
2022-08-11T19:38:12.854Z,67.90
2022-08-11T19:40:59.499Z,68.30
2022-08-11T19:43:48.411Z,68.10
2022-08-11T19:46:37.290Z,68.40
2022-08-11T19:49:23.815Z,69.70
2022-08-11T19:52:10.613Z,69.80
2022-08-11T19:54:57.477Z,70.40
2022-08-11T19:57:44.401Z,70.40
2022-08-11T20:00:38.866Z,69.90
2022-08-11T20:03:33.822Z,70.90
2022-08-11T20:06:26.630Z,71.10
2022-08-11T20:09:18.507Z,71.30
2022-08-11T20:12:10.863Z,72.00
2022-08-11T20:14:59.594Z,72.40
2022-08-11T20:17:50.959Z,73.20
2022-08-11T20:20:37.174Z,73.40
2022-08-11T20:23:27.962Z,73.60
2022-08-11T20:26:32.296Z,72.50
2022-08-11T20:29:19.598Z,72.70
2022-08-11T20:32:09.771Z,74.00
2022-08-11T20:34:57.346Z,73.90
2022-08-11T20:37:50.210Z,73.60
2022-08-11T20:40:45.310Z,74.40
2022-08-11T20:44:07.727Z,73.70
2022-08-11T20:46:42.038Z,75.00
2022-08-11T20:52:38.146Z,76.20
2022-08-11T20:55:51.230Z,77.30
2022-08-11T21:01:42.649Z,77.70
2022-08-11T21:04:29.291Z,77.40
2022-08-11T21:07:27.977Z,77.20
2022-08-11T21:10:23.410Z,77.50
2022-08-11T21:13:25.893Z,77.00
2022-08-11T21:16:26.116Z,77.80
2022-08-11T21:20:01.668Z,78.70
2022-08-11T21:23:24.594Z,78.30
2022-08-11T21:26:18.395Z,78.60
2022-08-11T21:29:05.583Z,78.60
2022-08-11T21:31:53.086Z,78.10
2022-08-11T21:34:41.444Z,78.50
2022-08-11T21:37:29.283Z,79.20
2022-08-11T21:40:18.152Z,79.90
2022-08-11T21:43:07.199Z,80.10
2022-08-11T21:45:56.414Z,80.70
2022-08-11T21:48:45.385Z,80.90
2022-08-11T21:51:31.463Z,80.90
2022-08-11T21:54:19.368Z,81.10
2022-08-11T21:57:06.566Z,81.80
2022-08-11T22:00:07.411Z,81.40
2022-08-11T22:02:53.986Z,81.80
2022-08-11T22:05:41.132Z,80.90
2022-08-11T22:08:27.906Z,80.40
2022-08-11T22:11:13.967Z,80.60
2022-08-11T22:14:06.096Z,82.20
2022-08-11T22:16:54.624Z,81.70
2022-08-11T22:19:42.186Z,80.80
2022-08-11T22:22:32.029Z,81.60
2022-08-11T22:25:18.884Z,80.40
2022-08-11T22:28:06.692Z,80.10
2022-08-11T22:30:52.743Z,79.00
2022-08-11T22:33:46.561Z,78.10
2022-08-11T22:36:46.529Z,77.20
2022-08-11T22:39:35.418Z,77.50
2022-08-11T22:42:21.676Z,75.90
2022-08-11T22:45:20.436Z,76.00
2022-08-11T22:48:08.571Z,77.20
2022-08-11T22:50:58.786Z,77.10
2022-08-11T22:53:57.830Z,75.50
2022-08-11T22:56:47.244Z,75.90
2022-08-11T22:59:36.190Z,74.60
2022-08-11T23:02:24.583Z,75.90
2022-08-11T23:05:11.145Z,77.00
2022-08-11T23:07:58.470Z,75.70
2022-08-11T23:10:45.321Z,76.00
2022-08-11T23:13:33.947Z,76.60
2022-08-11T23:16:20.083Z,76.90
2022-08-11T23:19:07.498Z,75.70
2022-08-11T23:21:54.540Z,74.10
2022-08-11T23:24:41.630Z,75.80
2022-08-11T23:27:28.619Z,77.40
2022-08-11T23:30:18.865Z,76.70
2022-08-11T23:33:13.228Z,77.40
2022-08-11T23:36:05.538Z,76.70
2022-08-11T23:38:51.838Z,75.80
2022-08-11T23:41:38.002Z,77.00
2022-08-11T23:44:25.809Z,76.10
2022-08-11T23:47:15.490Z,74.80
2022-08-11T23:50:03.599Z,76.20
2022-08-11T23:52:52.219Z,74.70
2022-08-11T23:55:39.202Z,74.40
2022-08-11T23:58:25.858Z,73.80
